メインページ
METAR-TAF:

METAR-TAF

空港 :

Miles City, モンタナ州, アメリカ合衆国

緯度: 46-25-41N, 経度: 105-53-11W, 海抜: 801m

現時点の気象観測

当レポートは24分前の00:53(UTC)に作成
南西の風 5kt
気温 26°C
湿度 48%
気圧 1013 hPa
視程: 16.1km
晴天

METAR: KMLS 240053Z AUTO 22005KT 10SM CLR 26/14 A2990 RMK AO2 SLP107 T02610139

時間: 19:17 (01:17 UTC)

予報

当レポートは1時間55分前の23:22(UTC)に作成
予報は24日の 00時(UTC)から 24日の 24時(UTC)まで有効
の風 6kt
視程: 10km
高度5000ftの雲は散在している
24日の 0200時(UTC)から
変向風 5kt
視程: 10km
高度5000ftの雲は散在している, 積乱雲.
近辺で激しい雷雨
24日の 0900時(UTC)から
南/南東の風 5kt
視程: 10km
高度500ftの雲はほとんどない
近辺で霧
24日の 1600時(UTC)から
南/南西の風 7kt
視程: 10km
晴天
24日の 2100時(UTC)から
西/南西の風 7kt
視程: 10km
高度6000ftの雲は散在している
高度12000ftの千切れ雲あり

TAF: KMLS 232322Z 2400/2424 01006KT P6SM SCT050 FM240200 VRB05KT P6SM VCTS SCT050CB FM240900 16005KT P6SM VCFG FEW005 FM241600 20007KT P6SM SKC FM242100 25007KT P6SM SCT060 BKN120

4,000以上の空港の気象観測と天気予報(METAR報とTAF報)

利用可能な観測所は地図上に黄色い丸と赤い丸で示す。

丸の上にカーソルを重ねると観測所名を参照できる。

次にクリックすると気象観測と天気予報を参照できる。

マップの切り替え:黒色「×」印の緑ボタンをクリックして拡大、「-」印の緑ボタンをクリックして縮小、緑色の三角印をクリックして隣りの地図に切り替え


METAR-TAF: